Time;durP1;ratioP1;P1;durP2;ratioP2;P2;SDS_P1;SDS_P2;PMS_P1;PMS_P2;Temp;Humidity;BMP_temperature;BMP_pressure;BME280_temperature;BME280_humidity;BME280_pressure;Samples;Min_cycle;Max_cycle;Signal;HPM_P1;HPM_P2
2022/03/31 00:00:47;;;;;;;20.02;14.50;;;7.10;99.90;;;;;;5071347;28;20197;-72
2022/03/31 00:03:18;;;;;;;19.27;14.70;;;7.10;99.90;;;;;;5071172;28;20212;-71
2022/03/31 00:05:45;;;;;;;20.17;15.30;;;7.10;99.90;;;;;;5071136;28;20227;-71
2022/03/31 00:08:14;;;;;;;20.77;13.18;;;7.10;99.90;;;;;;5070498;28;20623;-72
2022/03/31 00:10:43;;;;;;;21.13;13.93;;;7.10;99.90;;;;;;5070993;28;20291;-72
2022/03/31 00:13:11;;;;;;;18.90;14.18;;;7.10;99.90;;;;;;5071032;28;20230;-72
2022/03/31 00:15:39;;;;;;;19.13;13.30;;;7.10;99.90;;;;;;5071168;28;20251;-71
2022/03/31 00:18:07;;;;;;;20.88;14.63;;;7.00;99.90;;;;;;5070727;28;20246;-71
2022/03/31 00:20:35;;;;;;;20.17;14.40;;;7.00;99.90;;;;;;5070843;28;20204;-70
2022/03/31 00:23:02;;;;;;;20.95;14.85;;;7.00;99.90;;;;;;5071060;28;20777;-70
2022/03/31 00:25:29;;;;;;;23.20;15.13;;;6.90;99.90;;;;;;5070727;28;20221;-72
2022/03/31 00:27:56;;;;;;;19.02;14.32;;;7.00;99.90;;;;;;5070501;28;20224;-72
2022/03/31 00:30:24;;;;;;;18.50;14.60;;;7.00;99.90;;;;;;5070894;28;20200;-71
2022/03/31 00:32:51;;;;;;;20.17;13.95;;;7.00;99.90;;;;;;5071295;28;20204;-71
2022/03/31 00:35:18;;;;;;;17.73;12.43;;;7.00;99.90;;;;;;5070863;28;20228;-71
2022/03/31 00:37:47;;;;;;;20.88;14.95;;;7.00;99.90;;;;;;5069981;28;20197;-70
2022/03/31 00:40:16;;;;;;;22.83;14.93;;;7.00;99.90;;;;;;5070828;28;20207;-71
2022/03/31 00:42:44;;;;;;;20.15;14.10;;;7.00;99.90;;;;;;5070805;28;20208;-69
2022/03/31 00:45:15;;;;;;;20.70;16.17;;;7.00;99.90;;;;;;5070894;28;20231;-72
2022/03/31 00:47:42;;;;;;;21.27;14.15;;;7.00;99.90;;;;;;5069903;28;20235;-71
2022/03/31 00:50:10;;;;;;;20.33;14.75;;;6.90;99.90;;;;;;5070704;28;20204;-72
2022/03/31 00:52:37;;;;;;;21.83;15.38;;;6.90;99.90;;;;;;5070490;28;20212;-71
2022/03/31 00:55:06;;;;;;;20.08;14.15;;;6.90;99.90;;;;;;5070511;28;20317;-72
2022/03/31 00:57:34;;;;;;;19.73;14.55;;;6.90;99.90;;;;;;5069694;28;20660;-71
2022/03/31 01:00:01;;;;;;;17.55;14.75;;;6.90;99.90;;;;;;5070499;28;20204;-71
2022/03/31 01:02:31;;;;;;;21.95;15.80;;;6.90;99.90;;;;;;5070214;28;20212;-71
2022/03/31 01:05:00;;;;;;;19.08;15.20;;;6.80;99.90;;;;;;5070466;28;20207;-72
2022/03/31 01:07:27;;;;;;;17.00;13.55;;;6.80;99.90;;;;;;5069454;28;20319;-71
2022/03/31 01:09:54;;;;;;;19.00;14.40;;;6.80;99.90;;;;;;5070340;28;20208;-71
2022/03/31 01:12:23;;;;;;;16.95;13.23;;;6.90;99.90;;;;;;5070295;28;20238;-71
2022/03/31 01:15:05;;;;;;;18.02;14.65;;;6.90;99.90;;;;;;5070064;28;20250;-70
2022/03/31 01:17:32;;;;;;;18.77;14.48;;;6.80;99.90;;;;;;5069575;28;20208;-71
2022/03/31 01:19:58;;;;;;;21.17;14.93;;;6.90;99.90;;;;;;5070182;28;20290;-71
2022/03/31 01:22:28;;;;;;;20.30;13.43;;;6.90;99.90;;;;;;5070155;28;20203;-72
2022/03/31 01:24:57;;;;;;;18.40;14.32;;;6.90;99.90;;;;;;5069886;28;20668;-71
2022/03/31 01:27:25;;;;;;;18.92;13.98;;;6.90;99.90;;;;;;5069255;28;20755;-70
2022/03/31 01:29:52;;;;;;;19.38;13.73;;;6.90;99.90;;;;;;5070036;28;20208;-71
2022/03/31 01:32:19;;;;;;;20.27;14.60;;;6.90;99.90;;;;;;5070405;28;20573;-71
2022/03/31 01:34:45;;;;;;;23.42;15.27;;;6.90;99.90;;;;;;5069723;28;20200;-70
2022/03/31 01:37:13;;;;;;;16.65;13.05;;;6.90;99.90;;;;;;5069703;28;20196;-72
2022/03/31 01:39:40;;;;;;;17.67;13.00;;;6.90;99.90;;;;;;5069918;28;20232;-71
2022/03/31 01:42:09;;;;;;;18.98;15.10;;;6.90;99.90;;;;;;5069935;28;20200;-71
2022/03/31 01:44:36;;;;;;;17.02;13.07;;;6.90;99.90;;;;;;5069893;28;20668;-70
2022/03/31 01:47:03;;;;;;;19.70;14.25;;;6.80;99.90;;;;;;5069275;28;20256;-72
2022/03/31 01:49:30;;;;;;;21.92;15.68;;;6.70;99.90;;;;;;5069696;28;20682;-71
2022/03/31 01:51:57;;;;;;;20.67;15.20;;;6.70;99.90;;;;;;5069985;28;20204;-71
2022/03/31 01:54:23;;;;;;;22.60;16.48;;;6.70;99.90;;;;;;5069959;28;20830;-71
2022/03/31 01:56:50;;;;;;;22.85;15.15;;;6.70;99.90;;;;;;5068928;28;20584;-70
2022/03/31 01:59:18;;;;;;;22.23;14.45;;;6.70;99.90;;;;;;5070019;28;20204;-72
2022/03/31 02:01:45;;;;;;;20.23;15.00;;;6.70;99.90;;;;;;5069667;28;20204;-71
2022/03/31 02:04:11;;;;;;;22.08;16.02;;;6.70;99.90;;;;;;5069989;28;20208;-71
2022/03/31 02:06:38;;;;;;;21.35;15.20;;;6.70;99.90;;;;;;5069024;28;20235;-71
2022/03/31 02:09:05;;;;;;;20.55;15.18;;;6.70;99.90;;;;;;5069834;28;20203;-70
2022/03/31 02:11:33;;;;;;;22.00;15.80;;;6.70;99.90;;;;;;5071423;28;20200;-70
2022/03/31 02:13:59;;;;;;;24.25;15.80;;;6.70;99.90;;;;;;5073376;28;20212;-71
2022/03/31 02:16:27;;;;;;;17.30;14.45;;;6.70;99.90;;;;;;5073414;28;20217;-71
2022/03/31 02:18:54;;;;;;;23.08;16.35;;;6.70;99.90;;;;;;5072594;28;20683;-71
2022/03/31 02:21:21;;;;;;;19.15;14.57;;;6.70;99.90;;;;;;5073594;28;20737;-71
2022/03/31 02:23:48;;;;;;;20.17;14.75;;;6.70;99.90;;;;;;5073024;28;20567;-72
2022/03/31 02:26:14;;;;;;;18.77;15.25;;;6.70;99.90;;;;;;5073387;28;20720;-71
2022/03/31 02:28:41;;;;;;;17.98;13.68;;;6.60;99.90;;;;;;5072489;28;20224;-71
2022/03/31 02:31:08;;;;;;;17.95;13.30;;;6.60;99.90;;;;;;5073008;28;20690;-71
2022/03/31 02:33:36;;;;;;;15.70;12.63;;;6.60;99.90;;;;;;5073326;28;20207;-72
2022/03/31 02:36:04;;;;;;;18.45;12.38;;;6.60;99.90;;;;;;5072878;28;20216;-70
2022/03/31 02:38:31;;;;;;;16.90;12.95;;;6.60;99.90;;;;;;5072525;28;20287;-71
2022/03/31 02:40:58;;;;;;;18.27;13.48;;;6.60;99.90;;;;;;5072962;28;20602;-71
2022/03/31 02:43:25;;;;;;;17.92;12.82;;;6.60;99.90;;;;;;5073007;28;20227;-72
2022/03/31 02:45:51;;;;;;;19.45;12.60;;;6.60;99.90;;;;;;5072671;28;20307;-72
2022/03/31 02:48:18;;;;;;;20.85;14.75;;;6.60;99.90;;;;;;5072440;28;20315;-71
2022/03/31 02:50:46;;;;;;;18.25;13.20;;;6.60;99.90;;;;;;5072779;28;20196;-71
2022/03/31 02:55:57;;;;;;;16.23;12.27;;;6.60;99.90;;;;;;5072740;28;20211;-71
2022/03/31 02:58:24;;;;;;;15.45;12.05;;;6.60;99.90;;;;;;5071962;28;20246;-71
2022/03/31 03:00:51;;;;;;;16.58;11.57;;;6.60;99.90;;;;;;5072633;28;20204;-71
2022/03/31 03:03:19;;;;;;;17.90;12.98;;;6.60;99.90;;;;;;5072595;28;20204;-71
2022/03/31 03:05:47;;;;;;;18.25;12.10;;;6.60;99.90;;;;;;5072224;28;20243;-71
2022/03/31 03:08:15;;;;;;;19.52;13.23;;;6.60;99.90;;;;;;5071707;28;20220;-71
2022/03/31 03:10:42;;;;;;;16.52;13.00;;;6.50;99.90;;;;;;5072361;28;20236;-70
2022/03/31 03:13:09;;;;;;;17.45;12.85;;;6.50;99.90;;;;;;5072334;28;20215;-71
2022/03/31 03:15:37;;;;;;;17.02;13.57;;;6.50;99.90;;;;;;5072179;28;20231;-71
2022/03/31 03:18:04;;;;;;;15.70;12.30;;;6.50;99.90;;;;;;5071865;28;20299;-69
2022/03/31 03:20:31;;;;;;;16.15;12.55;;;6.50;99.90;;;;;;5072016;28;20208;-71
2022/03/31 03:22:59;;;;;;;14.32;11.80;;;6.50;99.90;;;;;;5072161;28;20690;-71
2022/03/31 03:25:25;;;;;;;15.20;11.70;;;6.50;99.90;;;;;;5071845;28;20591;-71
2022/03/31 03:27:52;;;;;;;15.35;12.50;;;6.50;99.90;;;;;;5071496;28;20220;-71
2022/03/31 03:30:20;;;;;;;14.63;11.88;;;6.50;99.90;;;;;;5071948;28;20204;-71
2022/03/31 03:32:47;;;;;;;15.65;12.48;;;6.50;99.90;;;;;;5071899;28;20671;-71
2022/03/31 03:35:16;;;;;;;17.45;13.10;;;6.50;99.90;;;;;;5071782;28;20227;-71
2022/03/31 03:37:44;;;;;;;16.30;12.73;;;6.50;99.90;;;;;;5071182;28;20202;-71
2022/03/31 03:40:13;;;;;;;16.75;12.85;;;6.40;99.90;;;;;;5071825;28;20196;-71
2022/03/31 03:42:40;;;;;;;16.40;13.27;;;6.40;99.90;;;;;;5070970;28;20211;-71
2022/03/31 03:45:09;;;;;;;19.30;15.52;;;6.30;99.90;;;;;;5047833;28;20237;-71
2022/03/31 03:47:36;;;;;;;16.63;13.40;;;6.30;99.90;;;;;;5040713;28;20745;-70
2022/03/31 03:50:04;;;;;;;16.30;13.85;;;6.20;99.90;;;;;;5042244;28;20193;-71
2022/03/31 03:52:31;;;;;;;18.42;14.60;;;6.20;99.90;;;;;;5042152;28;20197;-70
2022/03/31 03:54:58;;;;;;;16.77;13.38;;;6.10;99.90;;;;;;5041664;28;20593;-71
2022/03/31 03:57:26;;;;;;;16.70;14.32;;;6.20;99.90;;;;;;5038350;28;20193;-70
2022/03/31 03:59:53;;;;;;;15.55;13.10;;;6.10;99.90;;;;;;5040323;28;20274;-70
2022/03/31 04:02:20;;;;;;;15.05;13.30;;;6.10;99.90;;;;;;5039172;28;20206;-70
2022/03/31 04:04:47;;;;;;;17.45;12.82;;;6.20;99.90;;;;;;5110918;22;21027;-68
2022/03/31 04:07:13;;;;;;;16.55;13.77;;;6.10;99.90;;;;;;5043487;28;20197;-68
2022/03/31 04:09:40;;;;;;;18.80;14.82;;;6.10;99.90;;;;;;5038751;28;20193;-68
2022/03/31 04:12:08;;;;;;;16.90;13.65;;;6.10;99.90;;;;;;5051027;28;20201;-68
2022/03/31 04:14:36;;;;;;;19.45;14.52;;;6.10;99.90;;;;;;5050625;28;20196;-68
2022/03/31 04:17:03;;;;;;;24.92;17.50;;;6.10;99.90;;;;;;5038789;28;20210;-68
2022/03/31 04:19:29;;;;;;;20.63;17.42;;;6.10;99.90;;;;;;5040587;28;20193;-69
2022/03/31 04:21:56;;;;;;;19.35;15.45;;;6.00;99.90;;;;;;5040533;28;20661;-68
2022/03/31 04:24:23;;;;;;;21.00;15.75;;;6.00;99.90;;;;;;5039636;28;20194;-68
2022/03/31 04:26:50;;;;;;;17.92;14.90;;;6.00;99.90;;;;;;5039413;28;20221;-69
2022/03/31 04:29:17;;;;;;;21.30;15.88;;;6.00;99.90;;;;;;5040275;28;20702;-69
2022/03/31 04:31:45;;;;;;;21.17;14.95;;;5.90;99.90;;;;;;5037652;28;20201;-69
2022/03/31 04:34:14;;;;;;;19.15;15.13;;;5.90;99.90;;;;;;5039845;28;20736;-69
2022/03/31 04:36:41;;;;;;;19.35;14.60;;;5.90;99.90;;;;;;5040966;28;20270;-70
2022/03/31 04:39:09;;;;;;;17.52;14.95;;;5.90;99.90;;;;;;5045161;28;20186;-70
2022/03/31 04:41:35;;;;;;;15.32;13.27;;;5.90;99.90;;;;;;5031496;28;20194;-70
2022/03/31 04:44:02;;;;;;;17.85;14.55;;;5.90;99.90;;;;;;5030537;28;20216;-70
2022/03/31 04:46:29;;;;;;;18.48;14.77;;;5.90;99.90;;;;;;5029243;28;20221;-70
2022/03/31 04:48:58;;;;;;;18.58;15.43;;;5.90;99.90;;;;;;5029944;28;20229;-70
2022/03/31 04:51:24;;;;;;;19.02;14.77;;;5.90;99.90;;;;;;5032352;28;20198;-69
2022/03/31 04:53:51;;;;;;;17.80;14.40;;;6.00;99.90;;;;;;5030569;28;20213;-70
2022/03/31 04:56:18;;;;;;;19.45;16.05;;;6.00;99.90;;;;;;5031329;28;20218;-72
2022/03/31 04:58:45;;;;;;;17.45;14.77;;;6.00;99.90;;;;;;5030381;28;20205;-72
2022/03/31 05:01:12;;;;;;;18.42;14.35;;;5.90;99.90;;;;;;5031149;28;20210;-72
2022/03/31 05:03:39;;;;;;;22.10;16.73;;;6.00;99.90;;;;;;5030417;28;20206;-72
2022/03/31 05:06:08;;;;;;;17.92;13.70;;;6.00;99.90;;;;;;5031003;28;20256;-72
2022/03/31 05:08:35;;;;;;;18.40;15.25;;;5.90;99.90;;;;;;5030460;28;20221;-72
2022/03/31 05:11:02;;;;;;;20.80;16.40;;;5.90;99.90;;;;;;5030679;28;20201;-72
2022/03/31 05:13:28;;;;;;;17.65;15.45;;;5.80;99.90;;;;;;5030950;28;20201;-72
2022/03/31 05:15:55;;;;;;;19.10;14.82;;;5.80;99.90;;;;;;5030404;28;20226;-73
2022/03/31 05:18:22;;;;;;;19.60;15.40;;;5.70;99.90;;;;;;5030478;28;20205;-73
2022/03/31 05:20:49;;;;;;;22.50;16.48;;;5.70;99.90;;;;;;5030491;28;20198;-71
2022/03/31 05:23:17;;;;;;;19.60;16.60;;;5.80;99.90;;;;;;5030886;28;20673;-74
2022/03/31 05:25:44;;;;;;;19.95;16.00;;;5.80;99.90;;;;;;5030183;28;20232;-73
2022/03/31 05:28:11;;;;;;;19.45;16.42;;;5.80;99.90;;;;;;5030079;28;20253;-73
2022/03/31 05:30:38;;;;;;;22.52;16.08;;;5.80;99.90;;;;;;5030351;28;20757;-72
2022/03/31 05:33:07;;;;;;;19.15;14.85;;;5.80;99.90;;;;;;5030171;28;20205;-73
2022/03/31 05:35:34;;;;;;;19.45;16.95;;;5.70;99.90;;;;;;5030399;28;20802;-71
2022/03/31 05:38:01;;;;;;;19.10;15.40;;;5.60;99.90;;;;;;5029663;28;20666;-71
2022/03/31 05:40:29;;;;;;;22.35;15.50;;;5.60;99.90;;;;;;5030646;28;20209;-70
2022/03/31 05:42:56;;;;;;;19.48;16.70;;;5.60;99.90;;;;;;5030135;28;20213;-71
2022/03/31 05:45:25;;;;;;;20.02;16.40;;;5.60;99.90;;;;;;5030613;28;20245;-71
2022/03/31 05:47:52;;;;;;;21.65;17.15;;;5.70;99.90;;;;;;5033232;28;20210;-70
2022/03/31 05:50:19;;;;;;;18.67;14.98;;;5.70;99.90;;;;;;5034481;28;20241;-70
2022/03/31 05:52:46;;;;;;;21.15;15.70;;;5.70;99.90;;;;;;5034412;28;20205;-70
2022/03/31 05:55:14;;;;;;;21.27;15.98;;;5.80;99.90;;;;;;5033937;28;20233;-71
2022/03/31 05:57:42;;;;;;;18.90;15.48;;;5.80;99.90;;;;;;5033466;28;20223;-71
2022/03/31 06:00:11;;;;;;;19.77;16.42;;;5.80;99.90;;;;;;5033951;28;20578;-73
2022/03/31 06:02:38;;;;;;;17.95;15.40;;;5.80;99.90;;;;;;5041066;28;20627;-73
2022/03/31 06:05:06;;;;;;;21.35;17.67;;;5.80;99.90;;;;;;5053325;28;20232;-72
2022/03/31 06:07:33;;;;;;;20.45;15.73;;;5.80;99.90;;;;;;5053337;28;20201;-74
2022/03/31 06:10:00;;;;;;;20.80;17.30;;;5.70;99.90;;;;;;5053690;28;20243;-72
2022/03/31 06:12:27;;;;;;;18.80;14.95;;;5.70;99.90;;;;;;5053958;28;20201;-72
2022/03/31 06:14:55;;;;;;;19.13;14.57;;;5.70;99.90;;;;;;5053727;28;20201;-74
2022/03/31 06:17:21;;;;;;;18.80;15.13;;;5.70;99.90;;;;;;5053204;28;20204;-71
2022/03/31 06:19:48;;;;;;;18.67;15.05;;;5.80;99.90;;;;;;5053649;28;20251;-70
2022/03/31 06:22:15;;;;;;;20.85;16.17;;;5.80;99.90;;;;;;5053480;28;20209;-71
2022/03/31 06:24:42;;;;;;;22.45;16.48;;;5.80;99.90;;;;;;5053518;28;20684;-71
2022/03/31 06:27:11;;;;;;;19.10;15.32;;;5.80;99.90;;;;;;5053050;28;20227;-70
2022/03/31 06:29:38;;;;;;;20.80;15.95;;;5.80;99.90;;;;;;5053358;28;20217;-70
2022/03/31 06:32:08;;;;;;;21.05;16.38;;;5.80;99.90;;;;;;5053421;28;20197;-70
2022/03/31 06:34:37;;;;;;;18.52;14.48;;;5.80;99.90;;;;;;5053358;28;20208;-70
2022/03/31 06:37:04;;;;;;;21.42;17.30;;;5.90;99.90;;;;;;5052895;28;20711;-70
2022/03/31 06:39:31;;;;;;;19.70;16.35;;;5.90;99.90;;;;;;5053396;28;20204;-71
2022/03/31 06:41:58;;;;;;;18.38;15.57;;;5.90;99.90;;;;;;5053330;28;20707;-73
2022/03/31 06:44:24;;;;;;;21.40;16.73;;;5.90;99.90;;;;;;5053112;28;20205;-73
2022/03/31 06:46:52;;;;;;;18.55;16.17;;;5.90;99.90;;;;;;5052671;28;20563;-72
2022/03/31 06:49:21;;;;;;;19.27;15.40;;;6.00;99.90;;;;;;5053090;28;20758;-74
2022/03/31 06:51:47;;;;;;;18.10;15.32;;;6.00;99.90;;;;;;5053189;28;20201;-71
2022/03/31 06:54:14;;;;;;;20.13;15.55;;;6.00;99.90;;;;;;5053303;28;20213;-71
2022/03/31 06:56:41;;;;;;;19.15;14.85;;;6.00;99.90;;;;;;5051966;28;20724;-76
2022/03/31 06:59:07;;;;;;;19.63;16.20;;;6.00;99.90;;;;;;5053084;28;20200;-72
2022/03/31 07:01:34;;;;;;;19.25;14.90;;;6.10;99.90;;;;;;5052832;28;20209;-73
2022/03/31 07:04:01;;;;;;;18.80;14.20;;;6.20;99.90;;;;;;5052721;28;20778;-73
2022/03/31 07:06:29;;;;;;;16.50;14.70;;;6.20;99.90;;;;;;5052930;28;20228;-71
2022/03/31 07:08:55;;;;;;;17.95;14.45;;;6.30;99.90;;;;;;5052150;28;20555;-72
2022/03/31 07:11:23;;;;;;;22.42;17.33;;;6.30;99.90;;;;;;5052863;28;20205;-72
2022/03/31 07:13:49;;;;;;;20.15;15.93;;;6.40;99.90;;;;;;5052514;28;20204;-73
2022/03/31 07:16:17;;;;;;;22.15;17.85;;;6.40;99.90;;;;;;5052552;28;20231;-73
2022/03/31 07:18:44;;;;;;;19.20;15.35;;;6.40;99.90;;;;;;5054724;28;20215;-79
2022/03/31 07:21:11;;;;;;;19.70;16.50;;;6.40;99.90;;;;;;5055615;28;20695;-72
2022/03/31 07:23:40;;;;;;;17.83;15.52;;;6.50;99.90;;;;;;5055907;28;20205;-79
2022/03/31 07:26:07;;;;;;;17.45;15.15;;;6.60;99.90;;;;;;5038291;28;20236;-70
2022/03/31 07:28:33;;;;;;;19.52;15.77;;;6.50;99.90;;;;;;5047526;28;20213;-75
2022/03/31 07:31:00;;;;;;;20.08;17.05;;;6.60;99.90;;;;;;5049961;28;20212;-78
2022/03/31 07:33:30;;;;;;;18.45;15.70;;;6.60;99.90;;;;;;5052172;28;20542;-72
2022/03/31 07:35:57;;;;;;;19.85;16.20;;;6.60;99.90;;;;;;5051624;28;20225;-72
2022/03/31 07:38:23;;;;;;;17.95;15.10;;;6.60;99.90;;;;;;5051069;28;20201;-72
2022/03/31 07:40:51;;;;;;;17.83;15.23;;;6.50;99.90;;;;;;5051238;28;20201;-73
2022/03/31 07:43:19;;;;;;;20.50;16.52;;;6.50;99.90;;;;;;5051676;28;20203;-72
2022/03/31 07:45:55;;;;;;;17.67;15.77;;;6.60;99.90;;;;;;5051585;28;20232;-72
2022/03/31 07:48:22;;;;;;;19.38;16.00;;;6.60;99.90;;;;;;5051209;28;20258;-72
2022/03/31 07:50:58;;;;;;;19.77;16.05;;;6.70;99.90;;;;;;5051495;28;20204;-77
2022/03/31 07:53:35;;;;;;;;;;;;;;;;;;;;;
2022/03/31 07:56:06;;;;;;;18.98;14.68;;;6.80;99.90;;;;;;5053133;28;20315;-76
2022/03/31 07:58:34;;;;;;;19.52;15.77;;;6.80;99.90;;;;;;5052081;28;20699;-77
2022/03/31 08:01:07;;;;;;;19.33;15.77;;;6.90;99.90;;;;;;5051246;28;20201;-74
2022/03/31 08:03:33;;;;;;;19.92;14.48;;;6.90;99.90;;;;;;5051119;28;20200;-73
2022/03/31 08:06:00;;;;;;;18.27;14.95;;;6.90;99.90;;;;;;5050920;28;20229;-75
2022/03/31 08:08:28;;;;;;;20.90;15.13;;;7.00;99.90;;;;;;5050776;28;20613;-76
2022/03/31 08:10:55;;;;;;;17.38;14.85;;;7.00;99.90;;;;;;5051535;28;20299;-76
2022/03/31 08:13:26;;;;;;;18.13;14.98;;;7.00;99.90;;;;;;5050550;28;20212;-70
2022/03/31 08:15:54;;;;;;;19.92;14.50;;;7.00;99.90;;;;;;5051156;28;20225;-70
2022/03/31 08:18:28;;;;;;;20.25;15.60;;;7.00;99.90;;;;;;5050194;28;20262;-70
2022/03/31 08:20:57;;;;;;;18.55;14.95;;;7.00;99.90;;;;;;5050465;28;20331;-70
2022/03/31 08:23:24;;;;;;;17.92;14.60;;;7.10;99.90;;;;;;5050876;28;20684;-72
2022/03/31 08:25:50;;;;;;;20.95;15.30;;;7.10;99.90;;;;;;5049919;28;20228;-74
2022/03/31 08:28:17;;;;;;;20.45;15.25;;;7.00;99.90;;;;;;5050253;28;20597;-73
2022/03/31 08:30:45;;;;;;;18.45;14.98;;;7.00;99.90;;;;;;5050447;28;20703;-74
2022/03/31 08:33:12;;;;;;;19.08;15.15;;;7.00;99.90;;;;;;5050900;28;20205;-74
2022/03/31 08:35:39;;;;;;;20.23;15.60;;;7.00;99.90;;;;;;5050027;28;20228;-70
2022/03/31 08:38:13;;;;;;;21.58;16.20;;;7.10;99.90;;;;;;5049294;28;20602;-70
2022/03/31 08:40:40;;;;;;;20.23;15.43;;;7.10;99.90;;;;;;5049567;28;20652;-73
2022/03/31 08:43:07;;;;;;;19.40;15.30;;;7.10;99.90;;;;;;5050108;28;20300;-75
2022/03/31 08:45:36;;;;;;;22.58;15.95;;;7.20;99.90;;;;;;5050498;28;20224;-73
2022/03/31 08:48:05;;;;;;;20.95;16.30;;;7.40;99.90;;;;;;5049927;28;20220;-73
2022/03/31 08:50:37;;;;;;;24.55;17.40;;;7.60;99.90;;;;;;5050025;28;20221;-74
2022/03/31 08:53:05;;;;;;;21.00;15.90;;;7.80;99.90;;;;;;5035849;28;20225;-73
2022/03/31 08:55:32;;;;;;;20.80;16.65;;;8.10;99.90;;;;;;5030114;28;20280;-73
2022/03/31 08:58:01;;;;;;;20.42;14.68;;;8.40;99.90;;;;;;5029031;28;20216;-75
2022/03/31 09:00:28;;;;;;;20.40;15.25;;;8.60;99.90;;;;;;5030217;28;20202;-70
2022/03/31 09:02:58;;;;;;;21.17;16.05;;;8.80;99.90;;;;;;5031710;28;20233;-73
2022/03/31 09:05:27;;;;;;;18.67;14.85;;;9.10;99.90;;;;;;5031631;28;20279;-74
2022/03/31 09:07:56;;;;;;;19.55;16.20;;;9.30;99.90;;;;;;5031654;28;20213;-72
2022/03/31 09:10:28;;;;;;;20.88;15.60;;;9.60;99.90;;;;;;5032681;28;20678;-71
2022/03/31 09:12:56;;;;;;;18.48;15.00;;;9.80;99.90;;;;;;5029936;28;20205;-71
2022/03/31 09:15:23;;;;;;;17.70;14.38;;;9.90;99.90;;;;;;5028984;28;20226;-72
2022/03/31 09:17:55;;;;;;;18.25;15.35;;;10.00;99.90;;;;;;5028961;28;20311;-73
2022/03/31 09:20:22;;;;;;;19.38;15.20;;;10.00;99.90;;;;;;5031517;28;20244;-73
2022/03/31 09:22:50;;;;;;;16.10;14.40;;;9.90;99.90;;;;;;5033087;28;20198;-72
2022/03/31 09:25:25;;;;;;;18.63;15.23;;;9.90;99.90;;;;;;5033442;28;20232;-73
2022/03/31 09:27:52;;;;;;;20.23;15.65;;;9.80;99.90;;;;;;5032474;28;20204;-72
2022/03/31 09:30:19;;;;;;;20.33;14.82;;;9.80;99.90;;;;;;5032940;28;20593;-73
2022/03/31 09:32:50;;;;;;;17.40;13.68;;;9.80;99.90;;;;;;5033319;28;20201;-73
2022/03/31 09:35:21;;;;;;;18.40;15.40;;;9.80;99.90;;;;;;5033237;28;20225;-72
2022/03/31 09:37:49;;;;;;;17.42;15.13;;;9.80;99.90;;;;;;5032387;28;20208;-71
2022/03/31 09:40:20;;;;;;;19.63;16.05;;;9.90;99.90;;;;;;5032651;28;20197;-70
2022/03/31 09:42:57;;;;;;;17.38;14.60;;;9.90;99.90;;;;;;5033268;28;20208;-69
2022/03/31 09:45:24;;;;;;;18.75;15.80;;;10.00;99.90;;;;;;5032696;28;20252;-69
2022/03/31 09:47:51;;;;;;;18.27;15.07;;;10.10;99.90;;;;;;5033545;28;20205;-69
2022/03/31 09:50:19;;;;;;;18.88;15.82;;;10.10;99.90;;;;;;5034208;28;20766;-69
2022/03/31 09:52:46;;;;;;;18.70;15.85;;;10.30;99.90;;;;;;5033898;28;20209;-69
2022/03/31 09:55:12;;;;;;;21.33;16.45;;;10.40;99.90;;;;;;5033919;28;20588;-69
2022/03/31 09:57:41;;;;;;;18.40;16.08;;;10.70;99.90;;;;;;5033159;28;20677;-69
2022/03/31 10:00:09;;;;;;;18.85;15.60;;;10.90;99.90;;;;;;5033931;28;20217;-69
2022/03/31 10:02:37;;;;;;;22.30;15.90;;;11.30;99.90;;;;;;5033830;28;20198;-69
2022/03/31 10:10:50;;;;;;;19.88;16.00;;;11.90;99.90;;;;;;5064873;28;20216;-91
2022/03/31 10:13:28;;;;;;;21.03;17.07;;;12.00;99.90;;;;;;5063449;28;20670;-91
2022/03/31 10:16:05;;;;;;;17.77;15.97;;;12.00;99.90;;;;;;5046976;28;20496;-91
2022/03/31 10:18:32;;;;;;;19.33;15.10;;;12.10;99.90;;;;;;5043361;28;20468;-92
2022/03/31 10:21:07;;;;;;;19.13;15.13;;;12.20;99.90;;;;;;5043034;28;20452;-92
2022/03/31 10:29:23;;;;;;;16.03;13.20;;;11.90;99.90;;;;;;5042641;28;20463;-92
2022/03/31 10:31:56;;;;;;;15.03;13.00;;;12.30;99.90;;;;;;5043796;28;20464;-92
2022/03/31 10:34:44;;;;;;;19.73;13.30;;;12.60;99.90;;;;;;5045753;28;20491;-92
2022/03/31 10:37:13;;;;;;;16.30;14.30;;;12.80;99.90;;;;;;5040800;28;20555;-91
2022/03/31 10:40:03;;;;;;;17.13;13.70;;;12.80;99.90;;;;;;5040441;28;20453;-91
2022/03/31 10:42:32;;;;;;;16.80;15.00;;;12.70;99.90;;;;;;5042735;28;20483;-92
2022/03/31 10:45:13;;;;;;;16.87;14.60;;;12.30;99.90;;;;;;5040992;28;20484;-90
2022/03/31 10:47:44;;;;;;;17.93;13.80;;;12.20;99.90;;;;;;5041530;28;20463;-91
2022/03/31 10:50:25;;;;;;;16.67;12.73;;;12.10;99.90;;;;;;5040915;28;20473;-91
2022/03/31 10:55:50;;;;;;;17.07;14.13;;;11.60;99.90;;;;;;5055715;22;20499;-72
2022/03/31 10:58:25;;;;;;;20.95;14.63;;;11.60;99.90;;;;;;5039290;28;20457;-71
2022/03/31 11:00:53;;;;;;;22.73;14.82;;;11.50;99.90;;;;;;5052276;28;20200;-74
2022/03/31 11:03:21;;;;;;;15.53;13.33;;;11.50;99.90;;;;;;5052029;28;20216;-74
2022/03/31 11:05:48;;;;;;;17.20;15.38;;;11.20;99.90;;;;;;5050243;28;20532;-72
2022/03/31 11:08:17;;;;;;;19.10;14.45;;;11.00;99.90;;;;;;5030459;28;20209;-74
2022/03/31 11:10:47;;;;;;;19.40;15.55;;;11.00;99.90;;;;;;5032778;28;20316;-78
2022/03/31 11:13:15;;;;;;;23.63;14.20;;;11.00;99.90;;;;;;5036569;28;20202;-80
2022/03/31 11:15:44;;;;;;;19.42;14.55;;;11.00;99.90;;;;;;5037131;28;20226;-72
2022/03/31 11:18:12;;;;;;;17.38;15.02;;;11.00;99.90;;;;;;5031874;28;20198;-72
2022/03/31 11:20:39;;;;;;;19.35;15.10;;;10.80;99.90;;;;;;5031187;28;20201;-72
2022/03/31 11:23:07;;;;;;;18.50;14.63;;;10.70;99.90;;;;;;5036755;28;20236;-73
2022/03/31 11:25:35;;;;;;;15.98;14.02;;;10.70;99.90;;;;;;5050178;28;20507;-73
2022/03/31 11:28:09;;;;;;;18.48;14.90;;;10.80;99.90;;;;;;5050809;28;20236;-71
2022/03/31 11:30:36;;;;;;;18.95;14.65;;;11.00;99.90;;;;;;5052148;28;20220;-73
2022/03/31 11:33:03;;;;;;;18.75;15.00;;;11.20;99.90;;;;;;5050547;28;20585;-73
2022/03/31 11:35:32;;;;;;;21.30;15.90;;;11.30;99.90;;;;;;5050064;28;20225;-72
2022/03/31 11:38:00;;;;;;;21.65;15.10;;;11.30;99.90;;;;;;5050339;28;20201;-73
2022/03/31 11:40:31;;;;;;;15.95;14.25;;;11.30;99.90;;;;;;5051196;28;20205;-72
2022/03/31 11:42:59;;;;;;;17.40;14.45;;;11.20;99.90;;;;;;5050362;28;20209;-76
2022/03/31 11:45:29;;;;;;;17.80;15.60;;;11.10;99.90;;;;;;5049183;28;20217;-74
2022/03/31 11:47:57;;;;;;;18.35;15.57;;;11.10;99.90;;;;;;5050630;28;20527;-72
2022/03/31 11:50:24;;;;;;;18.20;16.05;;;11.10;99.90;;;;;;5049887;28;20221;-75
2022/03/31 11:52:52;;;;;;;17.45;15.55;;;11.30;99.90;;;;;;5050914;28;20200;-76
2022/03/31 11:55:21;;;;;;;19.00;15.32;;;11.40;99.90;;;;;;5049665;28;20224;-77
2022/03/31 11:57:52;;;;;;;18.85;16.10;;;11.50;99.90;;;;;;5049566;28;20440;-76
2022/03/31 12:00:20;;;;;;;20.55;16.70;;;11.50;99.90;;;;;;5051199;28;20197;-77
2022/03/31 12:02:56;;;;;;;20.55;16.70;;;11.60;99.90;;;;;;5050634;28;20205;-75
2022/03/31 12:05:22;;;;;;;22.77;15.85;;;11.70;99.90;;;;;;5049211;28;20236;-76
2022/03/31 12:07:50;;;;;;;16.95;14.82;;;11.90;99.90;;;;;;5049795;28;20207;-71
2022/03/31 12:10:18;;;;;;;18.05;15.35;;;12.10;99.90;;;;;;5049790;28;20224;-73
2022/03/31 12:12:49;;;;;;;17.90;15.03;;;12.30;99.90;;;;;;5050389;28;20247;-73
2022/03/31 12:15:21;;;;;;;16.33;14.60;;;12.50;99.90;;;;;;5049997;28;20878;-76
2022/03/31 12:18:04;;;;;;;16.37;14.53;;;12.40;99.90;;;;;;5045527;28;20459;-77
2022/03/31 12:20:32;;;;;;;23.10;14.80;;;12.20;99.90;;;;;;5024205;28;20456;-77
2022/03/31 12:22:59;;;;;;;18.20;15.10;;;12.00;99.90;;;;;;5036857;28;20456;-79
2022/03/31 12:25:36;;;;;;;18.00;13.70;;;11.70;99.90;;;;;;5032908;28;20502;-72
2022/03/31 12:28:04;;;;;;;17.60;15.13;;;11.60;99.90;;;;;;5029743;28;20467;-73
2022/03/31 12:30:46;;;;;;;17.17;14.68;;;11.50;99.90;;;;;;5030622;28;20488;-76
2022/03/31 12:33:24;;;;;;;19.90;15.20;;;11.40;99.90;;;;;;5032109;28;20208;-74
2022/03/31 12:36:01;;;;;;;19.47;15.73;;;11.20;99.90;;;;;;5029464;28;20226;-75
2022/03/31 12:38:40;;;;;;;22.77;15.20;;;11.20;99.90;;;;;;5029273;28;20959;-74
2022/03/31 12:41:18;;;;;;;18.35;14.43;;;11.10;99.90;;;;;;5030093;28;20467;-75
2022/03/31 12:44:01;;;;;;;18.17;14.82;;;11.10;99.90;;;;;;5030080;28;20198;-74
2022/03/31 12:46:30;;;;;;;17.52;15.60;;;11.00;99.90;;;;;;5029111;28;20268;-74
2022/03/31 12:49:01;;;;;;;19.50;15.10;;;11.10;99.90;;;;;;5029593;28;20206;-74
2022/03/31 12:51:28;;;;;;;16.55;14.63;;;11.00;99.90;;;;;;5031421;28;20236;-76
2022/03/31 12:53:55;;;;;;;20.52;15.15;;;10.80;99.90;;;;;;5034208;28;20550;-73
2022/03/31 12:56:25;;;;;;;16.90;14.10;;;10.80;99.90;;;;;;5029217;28;20230;-73
2022/03/31 12:58:55;;;;;;;17.25;14.73;;;10.80;99.90;;;;;;5030151;28;20205;-77